Time;durP1;ratioP1;P1;durP2;ratioP2;P2;SDS_P1;SDS_P2;PMS_P1;PMS_P2;Temp;Humidity;BMP_temperature;BMP_pressure;BME280_temperature;BME280_humidity;BME280_pressure;Samples;Min_cycle;Max_cycle;Signal;HPM_P1;HPM_P2
2022/08/03 00:00:00;;;;;;;10.95;3.00;;;18.50;99.90;;;;;;5133287;27;20497;-78
2022/08/03 00:02:26;;;;;;;9.63;2.60;;;18.60;99.90;;;;;;5134083;27;20425;-77
2022/08/03 00:04:53;;;;;;;7.70;2.20;;;18.60;99.90;;;;;;5133274;27;20023;-78
2022/08/03 00:07:18;;;;;;;11.35;2.55;;;18.50;99.90;;;;;;5133355;27;20011;-77
2022/08/03 00:09:44;;;;;;;9.10;2.33;;;18.40;99.90;;;;;;5134078;27;20031;-78
2022/08/03 00:12:10;;;;;;;14.88;2.90;;;18.40;99.90;;;;;;5133814;27;20143;-77
2022/08/03 00:14:36;;;;;;;10.23;2.60;;;18.30;99.90;;;;;;5133886;27;20015;-78
2022/08/03 00:17:02;;;;;;;9.88;2.55;;;18.30;99.90;;;;;;5134228;27;20019;-77
2022/08/03 00:19:28;;;;;;;9.00;2.85;;;18.30;99.90;;;;;;5134102;27;20015;-77
2022/08/03 00:21:53;;;;;;;7.85;2.67;;;18.30;99.90;;;;;;5134055;27;20017;-77
2022/08/03 00:24:19;;;;;;;13.25;2.97;;;18.30;99.90;;;;;;5133980;27;20019;-78
2022/08/03 00:26:46;;;;;;;16.05;3.67;;;18.40;99.90;;;;;;5132833;27;20080;-78
2022/08/03 00:29:11;;;;;;;17.80;3.65;;;18.30;99.90;;;;;;5133845;27;20079;-77
2022/08/03 00:31:37;;;;;;;10.55;3.22;;;18.40;99.90;;;;;;5133519;27;20027;-78
2022/08/03 00:34:03;;;;;;;14.05;2.92;;;18.40;99.90;;;;;;5133626;27;20030;-77
2022/08/03 00:36:28;;;;;;;8.52;2.70;;;18.40;99.90;;;;;;5134164;27;20015;-77
2022/08/03 00:38:55;;;;;;;10.68;3.95;;;18.50;99.90;;;;;;5133554;27;20023;-78
2022/08/03 00:41:21;;;;;;;7.35;2.78;;;18.50;99.90;;;;;;5133139;27;20464;-77
2022/08/03 00:43:47;;;;;;;9.77;2.92;;;18.60;99.90;;;;;;5133733;27;20034;-77
2022/08/03 00:46:13;;;;;;;11.02;3.38;;;18.60;99.90;;;;;;5133516;27;20041;-77
2022/08/03 00:48:38;;;;;;;16.80;3.05;;;18.70;99.90;;;;;;5133542;27;20024;-77
2022/08/03 00:51:05;;;;;;;5.90;2.60;;;18.70;99.90;;;;;;5132608;27;20035;-77
2022/08/03 00:53:32;;;;;;;14.77;3.15;;;18.70;99.90;;;;;;5132465;27;20118;-77
2022/08/03 00:55:58;;;;;;;11.93;3.33;;;18.70;99.90;;;;;;5132836;27;20054;-78
2022/08/03 00:58:24;;;;;;;9.82;2.63;;;18.70;99.90;;;;;;5131975;27;20383;-78
2022/08/03 01:00:50;;;;;;;13.32;3.15;;;18.70;99.90;;;;;;5133642;27;20062;-78
2022/08/03 01:03:15;;;;;;;13.93;3.13;;;18.70;99.90;;;;;;5133340;27;20031;-77
2022/08/03 01:06:06;;;;;;;12.52;3.22;;;18.70;99.90;;;;;;5132198;27;20039;-77
2022/08/03 01:08:53;;;;;;;27.35;3.60;;;18.80;99.90;;;;;;5133001;27;20076;-77
2022/08/03 01:11:49;;;;;;;8.48;2.33;;;18.80;99.90;;;;;;5132726;27;20034;-77
2022/08/03 01:14:23;;;;;;;4.90;2.30;;;18.70;99.90;;;;;;5108752;27;20034;-78
2022/08/03 01:16:56;;;;;;;7.25;2.65;;;18.70;99.90;;;;;;5132420;27;20034;-78
2022/08/03 01:19:44;;;;;;;12.65;2.88;;;18.70;99.90;;;;;;5132574;27;20104;-77
2022/08/03 01:22:22;;;;;;;10.13;2.17;;;18.70;99.90;;;;;;5131206;27;20019;-78
2022/08/03 01:25:13;;;;;;;6.82;2.35;;;18.70;99.90;;;;;;5132516;27;20042;-78
2022/08/03 01:27:56;;;;;;;8.15;2.40;;;18.70;99.90;;;;;;5132266;27;20395;-78
2022/08/03 01:30:30;;;;;;;13.95;2.70;;;18.70;99.90;;;;;;5132317;27;20114;-78
2022/08/03 01:33:34;;;;;;;12.10;3.22;;;18.70;99.90;;;;;;5132454;27;20042;-78
2022/08/03 01:36:04;;;;;;;8.35;2.65;;;18.70;99.90;;;;;;5093421;27;20482;-78
2022/08/03 01:38:37;;;;;;;9.80;2.78;;;18.70;99.90;;;;;;5132462;27;20568;-78
2022/08/03 01:41:10;;;;;;;11.77;3.15;;;18.70;99.90;;;;;;5132708;27;20018;-77
2022/08/03 01:43:39;;;;;;;5.72;2.80;;;18.70;99.90;;;;;;5126214;27;20425;-78
2022/08/03 01:46:07;;;;;;;12.32;2.95;;;18.70;99.90;;;;;;5130999;27;20008;-78
2022/08/03 01:48:35;;;;;;;6.20;2.45;;;18.70;99.90;;;;;;5132272;27;20110;-77
2022/08/03 01:51:01;;;;;;;11.38;2.88;;;18.70;99.90;;;;;;5131510;27;20129;-77
2022/08/03 01:53:29;;;;;;;7.97;2.70;;;18.70;99.90;;;;;;5132119;27;20023;-77
2022/08/03 01:55:56;;;;;;;7.07;2.13;;;18.70;99.90;;;;;;5130801;27;20079;-78
2022/08/03 01:58:24;;;;;;;5.88;2.40;;;18.70;99.90;;;;;;5132195;27;20026;-78
2022/08/03 02:00:51;;;;;;;11.85;2.55;;;18.70;99.90;;;;;;5125315;27;20111;-78
2022/08/03 02:03:19;;;;;;;6.97;2.47;;;18.70;99.90;;;;;;5131894;27;20015;-78
2022/08/03 02:05:46;;;;;;;5.43;2.10;;;18.70;99.90;;;;;;5130575;27;20023;-77
2022/08/03 02:08:15;;;;;;;9.90;2.38;;;18.70;99.90;;;;;;5132109;27;20060;-78
2022/08/03 02:10:42;;;;;;;6.28;1.90;;;18.80;99.90;;;;;;5131376;27;20166;-77
2022/08/03 02:13:09;;;;;;;8.13;2.50;;;18.80;99.90;;;;;;5131694;27;20015;-77
2022/08/03 02:15:39;;;;;;;6.90;1.88;;;18.80;99.90;;;;;;5131665;27;20019;-78
2022/08/03 02:18:08;;;;;;;7.63;1.90;;;18.80;99.90;;;;;;5124922;27;20015;-77
2022/08/03 02:20:36;;;;;;;8.73;1.55;;;18.80;99.90;;;;;;5131263;27;20110;-77
2022/08/03 02:23:02;;;;;;;8.38;1.60;;;18.80;99.90;;;;;;5131842;27;20019;-77
2022/08/03 02:25:31;;;;;;;3.65;1.67;;;18.80;99.90;;;;;;5132012;27;20079;-78
2022/08/03 02:28:15;;;;;;;5.25;1.73;;;18.80;99.90;;;;;;5131211;27;20066;-77
2022/08/03 02:30:43;;;;;;;5.68;1.45;;;18.80;99.90;;;;;;5131449;27;20102;-77
2022/08/03 02:33:15;;;;;;;6.75;2.00;;;18.70;99.90;;;;;;5131809;27;20022;-77
2022/08/03 02:35:42;;;;;;;9.50;1.55;;;18.70;99.90;;;;;;5130847;27;20034;-77
2022/08/03 02:38:10;;;;;;;7.00;1.60;;;18.70;99.90;;;;;;5131686;27;20404;-77
2022/08/03 02:40:38;;;;;;;9.20;1.67;;;18.70;99.90;;;;;;5131982;28;20015;-78
2022/08/03 02:43:08;;;;;;;12.93;1.95;;;18.80;99.90;;;;;;5131221;28;20026;-77
2022/08/03 02:45:40;;;;;;;11.98;2.10;;;18.80;99.90;;;;;;5131499;28;20043;-77
2022/08/03 02:48:08;;;;;;;4.07;1.88;;;18.70;99.90;;;;;;5124537;28;20064;-77
2022/08/03 02:50:34;;;;;;;5.03;1.52;;;18.70;99.90;;;;;;5130662;28;20031;-78
2022/08/03 02:53:01;;;;;;;5.78;1.52;;;18.70;99.90;;;;;;5130983;28;20019;-77
2022/08/03 02:55:28;;;;;;;7.38;1.63;;;18.70;99.90;;;;;;5131437;28;20022;-77
2022/08/03 02:57:55;;;;;;;5.47;1.88;;;18.70;99.90;;;;;;5130503;28;20023;-78
2022/08/03 03:00:22;;;;;;;6.05;1.63;;;18.80;99.90;;;;;;5130716;27;20019;-77
2022/08/03 03:02:48;;;;;;;5.28;1.88;;;18.80;99.90;;;;;;5134098;27;20050;-78
2022/08/03 03:05:15;;;;;;;10.02;1.95;;;18.80;99.90;;;;;;5134158;27;20521;-77
2022/08/03 03:07:42;;;;;;;7.78;3.30;;;18.80;99.90;;;;;;5134971;27;20025;-77
2022/08/03 03:10:09;;;;;;;3.00;1.45;;;18.80;99.90;;;;;;5134624;27;20058;-77
2022/08/03 03:12:36;;;;;;;6.22;2.15;;;18.80;99.90;;;;;;5134248;27;20027;-78
2022/08/03 03:15:05;;;;;;;4.15;1.80;;;18.80;99.90;;;;;;5134718;27;20042;-77
2022/08/03 03:17:33;;;;;;;3.47;1.30;;;18.70;99.90;;;;;;5134882;27;20015;-78
2022/08/03 03:20:00;;;;;;;4.88;1.50;;;18.70;99.90;;;;;;5135159;27;20567;-78
2022/08/03 03:22:27;;;;;;;7.28;1.63;;;18.80;99.90;;;;;;5135104;27;20027;-77
2022/08/03 03:24:54;;;;;;;7.60;1.98;;;18.80;99.90;;;;;;5134947;27;20468;-77
2022/08/03 03:27:20;;;;;;;8.07;1.70;;;18.80;99.90;;;;;;5135014;27;20410;-78
2022/08/03 03:29:48;;;;;;;7.68;2.10;;;18.80;99.90;;;;;;5134696;27;20098;-77
2022/08/03 03:32:13;;;;;;;7.18;1.77;;;18.80;99.90;;;;;;5134618;27;20102;-77
2022/08/03 03:34:41;;;;;;;6.82;1.95;;;18.80;99.90;;;;;;5134937;27;20102;-77
2022/08/03 03:37:06;;;;;;;8.27;1.90;;;18.90;99.90;;;;;;5127360;27;20027;-77
2022/08/03 03:39:32;;;;;;;7.53;1.85;;;18.80;99.90;;;;;;5135385;27;20027;-77
2022/08/03 03:41:59;;;;;;;7.10;1.75;;;18.80;99.90;;;;;;5134663;27;20027;-77
2022/08/03 03:44:29;;;;;;;8.00;1.92;;;18.80;99.90;;;;;;5127331;27;20019;-77
2022/08/03 03:46:57;;;;;;;8.98;2.05;;;18.80;99.90;;;;;;5134438;27;20054;-77
2022/08/03 17:53:11;;;;;;;6.82;2.05;;;23.60;99.90;;;;;;5133606;27;20396;-77
2022/08/03 17:55:41;;;;;;;3.60;1.10;;;23.00;99.90;;;;;;5093418;28;20106;-77
2022/08/03 17:58:14;;;;;;;7.10;1.10;;;23.00;99.90;;;;;;5098520;28;20012;-78
2022/08/03 18:03:49;;;;;;;7.40;1.20;;;23.10;99.90;;;;;;5100507;28;20089;-76
2022/08/03 18:06:17;;;;;;;3.22;1.30;;;23.10;99.90;;;;;;5100205;28;20140;-77
2022/08/03 18:08:49;;;;;;;6.25;1.13;;;23.00;99.90;;;;;;5106131;28;20020;-76
2022/08/03 18:11:20;;;;;;;5.53;1.00;;;22.90;99.90;;;;;;5105631;22;20106;-73
2022/08/03 18:14:00;;;;;;;4.72;1.27;;;22.90;99.90;;;;;;5038819;28;20056;-73
2022/08/03 18:16:50;;;;;;;4.05;1.20;;;22.80;99.90;;;;;;5038967;28;20029;-73
2022/08/03 18:19:16;;;;;;;4.63;0.80;;;22.70;99.90;;;;;;5040891;28;20505;-73
2022/08/03 18:21:42;;;;;;;5.32;0.88;;;22.80;99.90;;;;;;5048211;28;20025;-73
2022/08/03 18:24:10;;;;;;;6.55;1.58;;;22.80;99.90;;;;;;5047543;28;20025;-73
2022/08/03 18:26:37;;;;;;;2.70;1.27;;;22.70;99.90;;;;;;5051809;28;20025;-73
2022/08/03 18:29:03;;;;;;;6.13;0.98;;;22.80;99.90;;;;;;5047585;28;20017;-73
2022/08/03 18:31:30;;;;;;;5.78;1.05;;;22.60;99.90;;;;;;5047101;28;20041;-73
2022/08/03 18:33:58;;;;;;;5.18;1.10;;;22.60;99.90;;;;;;5047296;28;20096;-73
2022/08/03 18:36:24;;;;;;;7.22;1.50;;;22.50;99.90;;;;;;5030021;28;20025;-73
2022/08/03 18:38:51;;;;;;;3.65;0.93;;;22.40;99.90;;;;;;5047365;28;20024;-73
2022/08/03 18:41:17;;;;;;;7.25;1.30;;;22.20;99.90;;;;;;5047337;28;20474;-73
2022/08/03 18:43:46;;;;;;;4.57;1.60;;;22.10;99.90;;;;;;5043005;28;20033;-73
2022/08/03 18:46:47;;;;;;;2.55;1.40;;;22.00;99.90;;;;;;5042387;28;20021;-73
2022/08/03 18:49:21;;;;;;;8.07;1.73;;;21.80;99.90;;;;;;5037237;28;20100;-73
2022/08/03 18:51:50;;;;;;;6.32;2.25;;;21.70;99.90;;;;;;5042575;28;20033;-74
2022/08/03 18:54:24;;;;;;;6.43;1.63;;;21.60;99.90;;;;;;5028386;28;20026;-73
2022/08/03 18:56:51;;;;;;;7.43;1.60;;;21.50;99.90;;;;;;5025736;28;20064;-72
2022/08/03 18:59:33;;;;;;;7.45;2.22;;;21.40;99.90;;;;;;5028473;28;20025;-73
2022/08/03 19:02:16;;;;;;;4.90;1.30;;;21.40;99.90;;;;;;5023275;28;20067;-72
2022/08/03 19:04:46;;;;;;;4.78;1.77;;;21.30;99.90;;;;;;5027918;28;20553;-73
2022/08/03 19:07:17;;;;;;;7.53;1.95;;;21.30;99.90;;;;;;5031281;28;20053;-73
2022/08/03 19:12:17;;;;;;;6.57;2.22;;;21.00;99.90;;;;;;5034634;28;20079;-76
2022/08/03 19:14:48;;;;;;;5.45;2.20;;;20.90;99.90;;;;;;5011962;28;20108;-76
2022/08/03 19:17:14;;;;;;;8.55;2.05;;;20.80;99.90;;;;;;5029042;28;20029;-83
2022/08/03 19:19:44;;;;;;;8.43;2.05;;;20.60;99.90;;;;;;5026243;28;20029;-79
2022/08/03 19:22:11;;;;;;;3.08;1.65;;;20.60;99.90;;;;;;5029218;28;20017;-77
2022/08/03 19:24:41;;;;;;;8.27;2.00;;;20.50;99.90;;;;;;5029877;28;20022;-77
2022/08/03 19:27:11;;;;;;;5.15;1.65;;;20.30;99.90;;;;;;5028928;28;20375;-78
2022/08/03 19:29:37;;;;;;;4.90;2.50;;;20.20;99.90;;;;;;5029648;28;20025;-77
2022/08/03 19:32:06;;;;;;;9.55;2.30;;;20.10;99.90;;;;;;5028620;28;20084;-78
2022/08/03 19:34:33;;;;;;;5.78;1.90;;;20.00;99.90;;;;;;5029346;28;20029;-76
2022/08/03 19:36:59;;;;;;;5.20;1.58;;;19.90;99.90;;;;;;5028949;28;20040;-76
2022/08/03 19:39:25;;;;;;;7.72;2.22;;;19.80;99.90;;;;;;5029806;28;20017;-78
2022/08/03 19:41:55;;;;;;;7.53;2.45;;;19.80;99.90;;;;;;5030347;28;20022;-76
2022/08/03 19:44:30;;;;;;;6.85;2.60;;;19.70;99.90;;;;;;5030358;28;20040;-79
2022/08/03 19:47:13;;;;;;;5.03;2.08;;;19.70;99.90;;;;;;5029306;28;20112;-80
2022/08/03 19:49:43;;;;;;;6.93;3.08;;;19.70;99.90;;;;;;5029663;28;20386;-78
2022/08/03 19:52:10;;;;;;;6.75;2.72;;;19.70;99.90;;;;;;5014541;28;20049;-82
2022/08/03 19:54:42;;;;;;;6.53;2.90;;;19.60;99.90;;;;;;5028642;28;20030;-80
2022/08/03 19:57:09;;;;;;;8.43;2.75;;;19.60;99.90;;;;;;5025741;28;20195;-83
2022/08/03 19:59:38;;;;;;;11.77;3.35;;;19.70;99.90;;;;;;5028971;28;20037;-80
2022/08/03 20:02:05;;;;;;;9.30;3.03;;;19.70;99.90;;;;;;5011358;28;20574;-81
2022/08/03 20:04:31;;;;;;;6.13;2.88;;;19.60;99.90;;;;;;5025613;28;20025;-87
2022/08/03 20:06:58;;;;;;;11.65;3.25;;;19.60;99.90;;;;;;5030029;28;20032;-82
2022/08/03 20:09:25;;;;;;;7.07;3.55;;;19.60;99.90;;;;;;5015358;28;20060;-81
2022/08/03 20:11:51;;;;;;;16.15;4.00;;;19.60;99.90;;;;;;5027487;28;20041;-81
2022/08/03 20:14:18;;;;;;;6.35;3.05;;;19.60;99.90;;;;;;5029240;28;20056;-78
2022/08/03 20:16:45;;;;;;;9.77;3.33;;;19.50;99.90;;;;;;5014862;28;20061;-78
2022/08/03 20:19:11;;;;;;;8.40;3.63;;;19.60;99.90;;;;;;5010472;28;20716;-78
2022/08/03 20:21:38;;;;;;;11.00;3.15;;;19.60;99.90;;;;;;5027587;28;20133;-77
2022/08/03 20:24:08;;;;;;;10.82;3.45;;;19.60;99.90;;;;;;5028371;28;20029;-77
2022/08/03 20:26:35;;;;;;;10.98;3.63;;;19.60;99.90;;;;;;5026502;28;20040;-77
2022/08/03 20:29:04;;;;;;;7.57;3.65;;;19.70;99.90;;;;;;5014970;28;20022;-77
2022/08/03 20:31:31;;;;;;;10.73;3.75;;;19.60;99.90;;;;;;5027297;28;20537;-78
2022/08/03 20:33:57;;;;;;;10.80;3.60;;;19.60;99.90;;;;;;5028390;28;20448;-77
2022/08/03 20:36:23;;;;;;;7.57;3.03;;;19.60;99.90;;;;;;5030586;28;20025;-77
2022/08/03 20:38:48;;;;;;;4.05;2.75;;;19.60;99.90;;;;;;5012589;28;20402;-78
2022/08/03 20:41:15;;;;;;;8.43;3.72;;;19.60;99.90;;;;;;5013673;22;20108;-74
2022/08/03 20:43:41;;;;;;;12.02;3.63;;;19.60;99.90;;;;;;4968220;28;20033;-74
2022/08/03 20:46:07;;;;;;;8.18;3.78;;;19.60;99.90;;;;;;4963131;28;20032;-74
2022/08/03 20:48:34;;;;;;;7.30;3.38;;;19.50;99.90;;;;;;4961315;28;20034;-74
2022/08/03 20:51:04;;;;;;;8.63;3.20;;;19.50;99.90;;;;;;4956335;28;20169;-74
2022/08/03 20:53:31;;;;;;;5.05;2.97;;;19.50;99.90;;;;;;4957073;28;20640;-75
2022/08/03 20:55:57;;;;;;;10.15;3.78;;;19.50;99.90;;;;;;4951623;28;20077;-75
2022/08/03 20:58:23;;;;;;;8.13;3.58;;;19.50;99.90;;;;;;4950039;28;20030;-75
2022/08/03 21:00:50;;;;;;;9.13;3.95;;;19.50;99.90;;;;;;4949137;28;20023;-75
2022/08/03 21:03:15;;;;;;;6.45;3.80;;;19.50;99.90;;;;;;4953565;28;20042;-74
2022/08/03 21:05:44;;;;;;;10.50;4.15;;;19.50;99.90;;;;;;4952766;28;20039;-76
2022/08/03 21:08:12;;;;;;;7.35;4.22;;;19.50;99.90;;;;;;4953903;28;20284;-75
2022/08/03 21:10:40;;;;;;;6.20;3.25;;;19.40;99.90;;;;;;4953915;28;20031;-75
2022/08/03 21:13:37;;;;;;;9.88;3.80;;;19.40;99.90;;;;;;4953030;28;20034;-75
2022/08/03 21:16:04;;;;;;;6.18;3.10;;;19.40;99.90;;;;;;4948395;28;20076;-75
2022/08/03 21:18:34;;;;;;;8.57;3.78;;;19.30;99.90;;;;;;4946610;28;20051;-75
2022/08/03 21:21:01;;;;;;;6.78;3.78;;;19.30;99.90;;;;;;4943782;28;20023;-74
2022/08/03 21:23:28;;;;;;;8.27;4.25;;;19.30;99.90;;;;;;4949127;28;20517;-75
2022/08/03 21:25:55;;;;;;;11.70;4.40;;;19.30;99.90;;;;;;4945390;28;20019;-75
2022/08/03 21:28:23;;;;;;;7.82;5.00;;;19.30;99.90;;;;;;4946223;28;20049;-74
2022/08/03 21:30:49;;;;;;;6.60;4.25;;;19.30;99.90;;;;;;4947545;28;20031;-75
2022/08/03 21:33:16;;;;;;;7.97;4.20;;;19.30;99.90;;;;;;4945394;28;20115;-74
2022/08/03 21:35:45;;;;;;;7.97;4.10;;;19.30;99.90;;;;;;4944766;28;20373;-75
2022/08/03 21:38:20;;;;;;;11.60;4.68;;;19.30;99.90;;;;;;4941635;28;20133;-74
2022/08/03 21:40:50;;;;;;;10.60;5.03;;;19.30;99.90;;;;;;4944203;28;20045;-76
2022/08/03 21:43:18;;;;;;;10.02;4.63;;;19.30;99.90;;;;;;4938499;28;20023;-75
2022/08/03 21:45:51;;;;;;;9.70;4.63;;;19.30;99.90;;;;;;4935334;28;20028;-76
2022/08/03 21:48:18;;;;;;;8.20;4.55;;;19.30;99.90;;;;;;4934434;28;20023;-76
2022/08/03 21:50:47;;;;;;;7.65;4.53;;;19.30;99.90;;;;;;4931540;28;20414;-76
2022/08/03 21:53:13;;;;;;;10.43;4.55;;;19.30;99.90;;;;;;4934917;28;20038;-76
2022/08/03 21:55:57;;;;;;;7.53;4.93;;;19.30;99.90;;;;;;4945876;28;20392;-76
2022/08/03 21:58:55;;;;;;;12.60;5.30;;;19.40;99.90;;;;;;4928100;28;20027;-75
2022/08/03 22:01:24;;;;;;;8.98;4.60;;;19.40;99.90;;;;;;4949221;28;20483;-75
2022/08/03 22:03:53;;;;;;;10.63;5.22;;;19.40;99.90;;;;;;4926828;28;20719;-75
2022/08/03 22:06:21;;;;;;;9.90;5.10;;;19.40;99.90;;;;;;4925848;28;20056;-75
2022/08/03 22:08:49;;;;;;;14.93;5.63;;;19.40;99.90;;;;;;4925349;28;20024;-74
2022/08/03 22:11:15;;;;;;;9.63;5.65;;;19.50;99.90;;;;;;4921829;28;20046;-74
2022/08/03 22:13:41;;;;;;;12.38;4.88;;;19.30;99.90;;;;;;4922311;28;20066;-74
2022/08/03 22:16:10;;;;;;;12.95;5.72;;;19.50;99.90;;;;;;4923653;28;20069;-73
2022/08/03 22:18:38;;;;;;;12.88;4.95;;;19.40;99.90;;;;;;4923384;28;20076;-76
2022/08/03 22:21:06;;;;;;;7.32;5.07;;;19.40;99.90;;;;;;4958514;28;20074;-73
2022/08/03 22:23:40;;;;;;;7.97;4.82;;;19.40;99.90;;;;;;4965107;28;20027;-73
2022/08/03 22:26:10;;;;;;;9.35;4.75;;;19.40;99.90;;;;;;4972113;28;20543;-73
2022/08/03 22:28:35;;;;;;;7.20;5.03;;;19.30;99.90;;;;;;4969493;28;20151;-73
2022/08/03 22:31:02;;;;;;;8.05;4.20;;;19.40;99.90;;;;;;4971790;28;20110;-73
2022/08/03 22:33:28;;;;;;;8.52;4.80;;;19.40;99.90;;;;;;4971967;28;20023;-73
2022/08/03 22:35:56;;;;;;;9.48;3.83;;;19.40;99.90;;;;;;4972084;28;20042;-75
2022/08/03 22:38:25;;;;;;;8.02;4.60;;;19.40;99.90;;;;;;4971628;28;20030;-72
2022/08/03 22:40:52;;;;;;;8.48;4.25;;;19.40;99.90;;;;;;5031104;22;20051;-78
2022/08/03 22:43:25;;;;;;;10.85;4.38;;;19.40;99.90;;;;;;5055018;28;20017;-80
2022/08/03 22:45:53;;;;;;;7.57;4.05;;;19.50;99.90;;;;;;5072375;28;20067;-80
2022/08/03 22:48:20;;;;;;;8.13;4.18;;;19.40;99.90;;;;;;5072445;28;20017;-81
2022/08/03 22:50:47;;;;;;;6.68;4.15;;;19.40;99.90;;;;;;5052933;28;20048;-80
2022/08/03 22:53:18;;;;;;;9.35;4.68;;;19.40;99.90;;;;;;5053888;28;20096;-80
2022/08/03 22:55:44;;;;;;;14.65;5.35;;;19.40;99.90;;;;;;5043056;28;20020;-80
2022/08/03 22:58:14;;;;;;;10.30;3.95;;;19.50;99.90;;;;;;5053675;28;20512;-80
2022/08/03 23:00:54;;;;;;;8.52;3.92;;;19.50;99.90;;;;;;5053649;28;20021;-80
2022/08/03 23:03:25;;;;;;;6.93;3.95;;;19.50;99.90;;;;;;5035833;28;20111;-80
2022/08/03 23:05:53;;;;;;;8.95;4.07;;;19.50;99.90;;;;;;5028826;28;20028;-80
2022/08/03 23:08:32;;;;;;;9.50;4.15;;;19.50;99.90;;;;;;5053377;28;20474;-79
2022/08/03 23:11:07;;;;;;;7.35;4.57;;;19.50;99.90;;;;;;5053026;28;20029;-79
2022/08/03 23:13:33;;;;;;;9.02;5.25;;;19.50;99.90;;;;;;5053082;28;20065;-80
2022/08/03 23:16:00;;;;;;;9.23;5.00;;;19.50;99.90;;;;;;5035232;28;20386;-80
2022/08/03 23:18:29;;;;;;;14.68;6.18;;;19.40;99.90;;;;;;5053354;28;20231;-80
2022/08/03 23:20:57;;;;;;;11.13;6.28;;;19.40;99.90;;;;;;5052892;28;20153;-80
2022/08/03 23:23:23;;;;;;;13.43;6.43;;;19.40;99.90;;;;;;5035218;28;20078;-80
2022/08/03 23:25:50;;;;;;;6.38;4.32;;;19.30;99.90;;;;;;5052495;28;20120;-80
2022/08/03 23:28:17;;;;;;;8.32;4.88;;;19.30;99.90;;;;;;5052849;28;20534;-80
2022/08/03 23:30:44;;;;;;;10.00;5.07;;;19.30;99.90;;;;;;5052943;28;20057;-80
2022/08/03 23:33:12;;;;;;;12.68;4.57;;;19.30;99.90;;;;;;5035008;28;20021;-80
2022/08/03 23:35:57;;;;;;;9.57;3.97;;;19.30;99.90;;;;;;5053422;28;20021;-80
2022/08/03 23:38:30;;;;;;;8.43;5.07;;;19.30;99.90;;;;;;5053025;28;20028;-80
2022/08/03 23:41:00;;;;;;;5.78;3.55;;;19.40;99.90;;;;;;5060842;23;20426;-74
2022/08/03 23:43:31;;;;;;;10.17;4.10;;;19.30;99.90;;;;;;4990026;28;20030;-75
2022/08/03 23:45:59;;;;;;;9.02;4.20;;;19.30;99.90;;;;;;4990718;28;20406;-75
2022/08/03 23:48:26;;;;;;;6.72;3.60;;;19.30;99.90;;;;;;4990344;28;20493;-75
2022/08/03 23:51:02;;;;;;;6.28;4.00;;;19.30;99.90;;;;;;4990570;28;20113;-74
2022/08/03 23:53:47;;;;;;;6.75;3.45;;;19.30;99.90;;;;;;4990597;28;20025;-75
2022/08/03 23:56:31;;;;;;;7.47;3.67;;;19.40;99.90;;;;;;4990249;28;20459;-75
2022/08/03 23:59:16;;;;;;;8.65;3.83;;;19.40;99.90;;;;;;4990287;28;20022;-75
